createdAt,value
2019-05-23T00:01:17.072Z,15.53
2019-05-23T00:03:56.206Z,16.00
2019-05-23T00:06:35.833Z,15.67
2019-05-23T00:09:06.492Z,15.47
2019-05-23T00:11:40.525Z,15.67
2019-05-23T00:14:19.888Z,14.63
2019-05-23T00:16:48.856Z,16.63
2019-05-23T00:19:18.400Z,16.67
2019-05-23T00:21:46.863Z,19.77
2019-05-23T00:24:19.048Z,17.03
2019-05-23T00:26:48.562Z,18.87
2019-05-23T00:29:17.635Z,18.03
2019-05-23T00:31:47.903Z,18.27
2019-05-23T00:34:18.258Z,17.23
2019-05-23T00:36:46.994Z,16.27
2019-05-23T00:39:17.300Z,17.77
2019-05-23T00:41:46.795Z,13.17
2019-05-23T00:44:15.953Z,15.03
2019-05-23T00:46:44.863Z,17.77
2019-05-23T00:49:14.124Z,16.47
2019-05-23T00:51:42.589Z,19.07
2019-05-23T00:54:11.334Z,19.33
2019-05-23T00:56:40.276Z,19.83
2019-05-23T00:59:08.790Z,17.77
2019-05-23T01:01:38.975Z,18.43
2019-05-23T01:04:07.416Z,20.23
2019-05-23T01:06:37.332Z,19.57
2019-05-23T01:09:07.999Z,23.37
2019-05-23T01:11:36.584Z,19.27
2019-05-23T01:14:05.850Z,20.00
2019-05-23T01:16:35.562Z,20.97
2019-05-23T01:19:05.128Z,21.80
2019-05-23T01:21:34.939Z,18.57
2019-05-23T01:24:21.142Z,16.67
2019-05-23T01:26:50.503Z,18.13
2019-05-23T01:29:20.767Z,18.37
2019-05-23T01:31:51.465Z,17.43
2019-05-23T01:34:20.096Z,20.87
2019-05-23T01:36:48.799Z,21.03
2019-05-23T01:39:17.419Z,21.90
2019-05-23T01:41:46.616Z,20.93
2019-05-23T01:44:16.426Z,20.90
2019-05-23T01:46:45.602Z,22.10
2019-05-23T01:49:15.384Z,17.47
2019-05-23T01:51:44.427Z,21.70
2019-05-23T01:54:13.566Z,22.97
2019-05-23T01:56:43.139Z,20.50
2019-05-23T01:59:13.223Z,21.77
2019-05-23T02:01:41.770Z,21.10
2019-05-23T02:04:10.203Z,20.93
2019-05-23T02:06:38.970Z,22.40
2019-05-23T02:09:09.249Z,17.57
2019-05-23T02:11:37.746Z,22.23
2019-05-23T02:14:07.805Z,22.10
2019-05-23T02:16:36.541Z,19.60
2019-05-23T02:19:05.747Z,18.67
2019-05-23T02:21:34.191Z,17.90
2019-05-23T02:24:03.103Z,18.37
2019-05-23T02:26:32.558Z,17.63
2019-05-23T02:29:22.160Z,18.43
2019-05-23T02:31:50.836Z,18.33
2019-05-23T02:34:21.111Z,20.03
2019-05-23T02:36:50.653Z,19.43
2019-05-23T02:39:23.269Z,21.07
2019-05-23T02:42:09.990Z,20.27
2019-05-23T02:44:39.251Z,23.93
2019-05-23T02:47:24.836Z,20.93
2019-05-23T02:49:55.015Z,21.80
2019-05-23T02:52:37.146Z,18.57
2019-05-23T02:55:12.166Z,21.23
2019-05-23T02:57:41.514Z,20.13
2019-05-23T03:00:52.550Z,18.77
2019-05-23T03:03:09.166Z,20.40
2019-05-23T03:05:38.922Z,16.23
2019-05-23T03:08:09.903Z,19.87
2019-05-23T03:10:58.204Z,20.50
2019-05-23T03:13:28.272Z,20.57
2019-05-23T03:15:58.538Z,22.57
2019-05-23T03:18:34.523Z,18.47
2019-05-23T03:21:05.752Z,20.83
2019-05-23T03:23:35.371Z,21.20
2019-05-23T03:26:18.609Z,18.53
2019-05-23T03:28:48.561Z,17.83
2019-05-23T03:31:30.021Z,18.63
2019-05-23T03:33:52.084Z,17.43
2019-05-23T03:36:22.039Z,20.37
2019-05-23T03:38:51.767Z,21.83
2019-05-23T03:41:21.788Z,21.30
2019-05-23T03:43:50.554Z,22.40
2019-05-23T03:46:20.950Z,23.67
2019-05-23T03:48:49.690Z,21.63
2019-05-23T03:51:19.487Z,19.60
2019-05-23T03:53:49.214Z,23.97
2019-05-23T03:56:20.067Z,21.80
2019-05-23T03:58:50.873Z,16.00
2019-05-23T04:01:21.259Z,16.87
2019-05-23T04:03:50.451Z,20.70
2019-05-23T04:06:18.613Z,21.00
2019-05-23T04:08:48.712Z,20.53
2019-05-23T04:11:17.817Z,20.80
2019-05-23T04:13:46.708Z,20.27
2019-05-23T04:16:15.695Z,24.20
2019-05-23T04:18:44.163Z,21.73
2019-05-23T04:21:13.229Z,21.27
2019-05-23T04:23:41.360Z,23.23
2019-05-23T04:26:10.135Z,20.90
2019-05-23T04:28:39.102Z,20.90
2019-05-23T04:31:12.810Z,18.90
2019-05-23T04:33:38.275Z,19.87
2019-05-23T04:36:06.881Z,20.83
2019-05-23T04:38:36.626Z,19.80
2019-05-23T04:41:04.915Z,19.53
2019-05-23T04:43:33.351Z,21.33
2019-05-23T04:46:01.972Z,20.67
2019-05-23T04:48:30.121Z,19.40
2019-05-23T04:51:00.263Z,18.20
2019-05-23T04:53:29.547Z,17.07
2019-05-23T04:55:57.922Z,19.43
2019-05-23T04:58:26.358Z,17.83
2019-05-23T05:00:55.737Z,18.90
2019-05-23T05:03:24.515Z,17.73
2019-05-23T05:05:53.328Z,17.97
2019-05-23T05:08:22.119Z,16.00
2019-05-23T05:10:50.982Z,18.73
2019-05-23T05:13:20.025Z,16.03
2019-05-23T05:15:48.755Z,17.00
2019-05-23T05:18:17.432Z,19.60
2019-05-23T05:20:46.019Z,17.40
2019-05-23T05:23:14.457Z,17.70
2019-05-23T05:25:43.166Z,15.67
2019-05-23T05:28:11.600Z,15.83
2019-05-23T05:30:40.395Z,14.20
2019-05-23T05:33:09.098Z,14.17
2019-05-23T05:35:38.314Z,13.47
2019-05-23T05:38:07.148Z,14.17
2019-05-23T05:40:35.644Z,14.97
2019-05-23T05:43:04.636Z,11.27
2019-05-23T05:45:33.671Z,10.77
2019-05-23T05:48:02.857Z,10.47
2019-05-23T05:50:32.140Z,10.70
2019-05-23T05:53:00.524Z,11.87
2019-05-23T05:55:29.024Z,11.57
2019-05-23T05:57:57.544Z,11.00
2019-05-23T06:00:27.983Z,13.57
2019-05-23T06:03:04.378Z,12.33
2019-05-23T06:05:47.164Z,10.97
2019-05-23T06:08:17.279Z,12.03
2019-05-23T06:10:45.967Z,12.63
2019-05-23T06:13:15.168Z,10.73
2019-05-23T06:15:44.544Z,11.00
2019-05-23T06:18:13.645Z,11.47
2019-05-23T06:20:45.039Z,10.83
2019-05-23T06:23:13.674Z,12.30
2019-05-23T06:25:42.172Z,12.90
2019-05-23T06:28:11.736Z,11.33
2019-05-23T06:30:41.686Z,11.70
2019-05-23T06:33:22.472Z,10.97
2019-05-23T06:35:40.585Z,12.53
2019-05-23T06:38:08.716Z,11.67
2019-05-23T06:40:37.696Z,11.53
2019-05-23T06:43:06.490Z,13.13
2019-05-23T06:45:34.992Z,11.53
2019-05-23T06:48:03.357Z,11.60
2019-05-23T06:50:31.830Z,14.40
2019-05-23T06:53:01.539Z,14.97
2019-05-23T06:55:30.214Z,15.13
2019-05-23T06:57:58.744Z,13.53
2019-05-23T07:00:28.338Z,14.40
2019-05-23T07:02:57.601Z,13.70
2019-05-23T07:05:32.191Z,16.20
2019-05-23T07:08:01.033Z,17.10
2019-05-23T07:10:29.465Z,14.83
2019-05-23T07:12:58.379Z,14.33
2019-05-23T07:15:28.541Z,17.20
2019-05-23T07:17:58.031Z,13.67
2019-05-23T07:20:26.572Z,14.73
2019-05-23T07:22:55.097Z,14.90
2019-05-23T07:25:26.006Z,15.60
2019-05-23T07:27:54.815Z,14.37
2019-05-23T07:30:24.422Z,14.77
2019-05-23T07:32:53.631Z,17.03
2019-05-23T07:35:22.729Z,15.17
2019-05-23T07:37:50.844Z,15.07
2019-05-23T07:40:19.451Z,14.30
2019-05-23T07:42:47.931Z,15.37
2019-05-23T07:45:18.887Z,16.63
2019-05-23T07:47:47.582Z,14.50
2019-05-23T07:50:16.481Z,17.77
2019-05-23T07:52:44.581Z,14.83
2019-05-23T07:55:23.771Z,16.40
2019-05-23T07:57:53.010Z,17.40
2019-05-23T08:00:22.788Z,14.40
2019-05-23T08:02:51.855Z,18.50
2019-05-23T08:05:21.845Z,14.27
2019-05-23T08:07:50.434Z,17.33
2019-05-23T08:10:33.133Z,15.67
2019-05-23T08:12:49.486Z,15.80
2019-05-23T08:15:18.718Z,19.97
2019-05-23T08:17:47.879Z,17.03
2019-05-23T08:20:16.007Z,15.23
2019-05-23T08:22:45.296Z,18.23
2019-05-23T08:25:13.497Z,18.23
2019-05-23T08:27:42.711Z,17.63
2019-05-23T08:30:11.089Z,19.27
2019-05-23T08:32:39.931Z,20.23
2019-05-23T08:35:09.445Z,17.83
2019-05-23T08:37:39.813Z,23.63
2019-05-23T08:40:10.339Z,20.80
2019-05-23T08:42:39.480Z,17.83
2019-05-23T08:45:09.436Z,18.17
2019-05-23T08:47:38.932Z,22.73
2019-05-23T08:50:10.397Z,17.57
2019-05-23T08:52:39.087Z,16.90
2019-05-23T08:55:21.704Z,18.97
2019-05-23T08:57:51.096Z,16.37
2019-05-23T09:00:22.822Z,18.37
2019-05-23T09:02:51.543Z,18.03
2019-05-23T09:05:21.547Z,17.63
2019-05-23T09:07:51.414Z,19.13
2019-05-23T09:10:20.194Z,18.83
2019-05-23T09:12:49.188Z,21.13
2019-05-23T09:15:17.698Z,19.40
2019-05-23T09:17:52.958Z,17.67
2019-05-23T09:20:17.505Z,20.03
2019-05-23T09:22:45.618Z,16.30
2019-05-23T09:25:14.602Z,16.33
2019-05-23T09:27:42.894Z,16.47
2019-05-23T09:30:13.515Z,16.73
2019-05-23T09:32:41.975Z,16.80
2019-05-23T09:35:20.969Z,13.03
2019-05-23T09:37:42.642Z,15.33
2019-05-23T09:40:12.047Z,16.97
2019-05-23T09:42:40.558Z,14.83
2019-05-23T09:45:09.186Z,17.07
2019-05-23T09:47:37.781Z,15.47
2019-05-23T09:50:09.697Z,14.33
2019-05-23T09:52:38.160Z,13.93
2019-05-23T09:55:07.904Z,16.63
2019-05-23T09:57:36.415Z,13.73
2019-05-23T10:00:12.590Z,13.07
2019-05-23T10:02:43.284Z,14.47
2019-05-23T10:05:12.604Z,14.73
2019-05-23T10:07:41.183Z,13.27
2019-05-23T10:10:10.664Z,14.33
2019-05-23T10:12:38.771Z,17.27
2019-05-23T10:15:10.134Z,15.30
2019-05-23T10:17:38.717Z,15.47
2019-05-23T10:20:10.730Z,15.97
2019-05-23T10:22:39.167Z,13.47
2019-05-23T10:25:08.463Z,15.20
2019-05-23T10:27:36.643Z,15.33
2019-05-23T10:30:08.883Z,13.07
2019-05-23T10:32:37.461Z,18.23
2019-05-23T10:35:09.384Z,13.77
2019-05-23T10:37:37.897Z,12.80
2019-05-23T10:40:07.485Z,11.30
2019-05-23T10:42:38.027Z,12.47
2019-05-23T10:45:08.945Z,11.77
2019-05-23T10:47:37.097Z,13.53
2019-05-23T10:50:10.136Z,15.37
2019-05-23T10:52:39.116Z,11.70
2019-05-23T10:55:07.519Z,12.23
2019-05-23T10:57:36.297Z,9.87
2019-05-23T11:00:06.872Z,8.97
2019-05-23T11:02:43.580Z,10.90
2019-05-23T11:05:14.262Z,11.20
2019-05-23T11:07:43.887Z,13.00
2019-05-23T11:10:13.832Z,13.50
2019-05-23T11:12:42.332Z,12.03
2019-05-23T11:15:10.653Z,12.27
2019-05-23T11:17:39.348Z,11.53
2019-05-23T11:20:11.028Z,11.77
2019-05-23T11:22:39.537Z,12.20
2019-05-23T11:25:10.398Z,16.00
2019-05-23T11:27:38.980Z,12.20
2019-05-23T11:30:11.108Z,12.83
2019-05-23T11:32:39.558Z,12.83
2019-05-23T11:35:08.217Z,13.03
2019-05-23T11:37:36.902Z,9.63
2019-05-23T11:40:07.219Z,8.63
2019-05-23T11:42:36.112Z,8.00
2019-05-23T11:45:06.459Z,8.83
2019-05-23T11:47:35.915Z,7.77
2019-05-23T11:50:09.204Z,7.77
2019-05-23T11:52:38.017Z,7.23
2019-05-23T11:55:07.635Z,6.43
2019-05-23T11:57:37.688Z,8.73
2019-05-23T12:00:10.187Z,9.47
2019-05-23T12:02:44.880Z,8.30
2019-05-23T12:05:17.948Z,6.73
2019-05-23T12:07:46.146Z,7.70
2019-05-23T12:10:15.708Z,6.00
2019-05-23T12:12:44.259Z,7.60
2019-05-23T12:15:15.346Z,5.77
2019-05-23T12:17:44.061Z,4.83
2019-05-23T12:20:13.508Z,5.77
2019-05-23T12:22:42.524Z,5.57
2019-05-23T12:25:21.835Z,5.33
2019-05-23T12:27:42.008Z,5.93
2019-05-23T12:30:12.848Z,4.93
2019-05-23T12:32:41.373Z,4.33
2019-05-23T12:35:11.974Z,4.07
2019-05-23T12:37:40.445Z,4.63
2019-05-23T12:40:11.620Z,4.77
2019-05-23T12:42:40.227Z,3.50
2019-05-23T12:45:09.764Z,4.77
2019-05-23T12:47:42.901Z,4.57
2019-05-23T12:50:12.916Z,4.90
2019-05-23T12:52:41.704Z,5.30
2019-05-23T12:55:10.621Z,4.27
2019-05-23T12:57:39.487Z,5.03
2019-05-23T13:00:10.184Z,4.77
2019-05-23T13:02:38.963Z,4.47
2019-05-23T13:05:07.426Z,4.50
2019-05-23T13:07:36.971Z,4.40
2019-05-23T13:10:06.831Z,3.70
2019-05-23T13:12:35.373Z,4.60
2019-05-23T13:15:07.634Z,4.93
2019-05-23T13:17:36.495Z,7.67
2019-05-23T13:20:07.998Z,5.03
2019-05-23T13:22:36.460Z,6.03
2019-05-23T13:25:08.853Z,2.93
2019-05-23T13:27:37.820Z,3.37
2019-05-23T13:30:06.928Z,4.50
2019-05-23T13:32:35.671Z,4.90
2019-05-23T13:35:05.350Z,4.87
2019-05-23T13:37:34.840Z,3.57
2019-05-23T13:40:04.844Z,5.53
2019-05-23T13:42:33.021Z,3.67
2019-05-23T13:45:01.750Z,4.77
2019-05-23T13:47:30.230Z,4.60
2019-05-23T13:49:58.796Z,4.43
2019-05-23T13:52:27.368Z,3.60
2019-05-23T13:54:55.825Z,3.20
2019-05-23T13:57:24.503Z,2.90
2019-05-23T13:59:53.182Z,4.27
2019-05-23T14:02:21.984Z,2.80
2019-05-23T14:04:50.764Z,2.57
2019-05-23T14:07:19.863Z,3.00
2019-05-23T14:09:48.606Z,2.77
2019-05-23T14:12:21.373Z,3.60
2019-05-23T14:14:46.955Z,5.17
2019-05-23T14:17:19.958Z,4.63
2019-05-23T14:19:48.340Z,3.43
2019-05-23T14:22:17.257Z,4.70
2019-05-23T14:24:45.399Z,4.80
2019-05-23T14:27:30.477Z,5.60
2019-05-23T14:30:08.420Z,3.10
2019-05-23T14:32:30.641Z,4.37
2019-05-23T14:34:58.740Z,4.50
2019-05-23T14:37:30.073Z,4.97
2019-05-23T14:40:00.321Z,4.93
2019-05-23T14:42:33.294Z,4.53
2019-05-23T14:45:02.166Z,2.90
2019-05-23T14:47:38.267Z,4.13
2019-05-23T14:50:11.547Z,4.97
2019-05-23T14:52:41.979Z,5.27
2019-05-23T14:55:12.537Z,3.33
2019-05-23T14:57:41.127Z,3.90
2019-05-23T15:00:11.476Z,3.63
2019-05-23T15:02:39.919Z,2.90
2019-05-23T15:05:08.979Z,5.27
2019-05-23T15:07:37.475Z,6.27
2019-05-23T15:10:07.928Z,4.70
2019-05-23T15:12:36.122Z,2.90
2019-05-23T15:15:06.689Z,4.37
2019-05-23T15:17:35.147Z,4.13
2019-05-23T15:20:06.128Z,5.70
2019-05-23T15:22:34.924Z,4.77
2019-05-23T15:25:05.485Z,3.37
2019-05-23T15:27:34.295Z,6.37
2019-05-23T15:30:04.839Z,5.27
2019-05-23T15:32:33.559Z,5.03
2019-05-23T15:35:01.758Z,4.13
2019-05-23T15:37:29.874Z,7.43
2019-05-23T15:39:58.467Z,5.30
2019-05-23T15:42:26.991Z,3.90
2019-05-23T15:44:55.153Z,3.10
2019-05-23T15:47:25.359Z,4.57
2019-05-23T15:49:55.607Z,6.47
2019-05-23T15:52:42.430Z,2.80
2019-05-23T15:55:15.474Z,5.00
2019-05-23T15:57:51.815Z,4.97
2019-05-23T16:00:22.369Z,3.73
2019-05-23T16:02:52.540Z,6.93
2019-05-23T16:05:21.416Z,3.33
2019-05-23T16:07:50.039Z,4.73
2019-05-23T16:10:19.095Z,6.07
2019-05-23T16:12:47.601Z,4.30
2019-05-23T16:15:17.155Z,5.73
2019-05-23T16:17:45.252Z,4.73
2019-05-23T16:20:14.058Z,4.87
2019-05-23T16:22:42.647Z,4.23
2019-05-23T16:25:10.895Z,4.23
2019-05-23T16:27:39.160Z,5.17
2019-05-23T16:30:07.485Z,3.53
2019-05-23T16:32:35.772Z,5.57
2019-05-23T16:35:05.934Z,4.80
2019-05-23T16:37:34.413Z,7.47
2019-05-23T16:40:03.699Z,4.27
2019-05-23T16:42:32.216Z,5.53
2019-05-23T16:45:00.887Z,5.67
2019-05-23T16:47:29.626Z,3.10
2019-05-23T16:49:58.149Z,5.47
2019-05-23T16:52:26.625Z,4.13
2019-05-23T16:54:56.071Z,3.93
2019-05-23T16:57:26.165Z,5.47
2019-05-23T17:00:02.012Z,4.77
2019-05-23T17:02:35.069Z,2.50
2019-05-23T17:05:10.468Z,3.87
2019-05-23T17:07:44.748Z,5.50
2019-05-23T17:10:21.105Z,5.97
2019-05-23T17:13:09.087Z,4.33
2019-05-23T17:15:42.216Z,3.20
2019-05-23T17:18:30.391Z,3.50
2019-05-23T17:21:09.936Z,3.97
2019-05-23T17:23:46.158Z,4.30
2019-05-23T17:26:22.630Z,5.73
2019-05-23T17:28:52.880Z,4.07
2019-05-23T17:31:23.195Z,5.90
2019-05-23T17:33:51.706Z,6.77
2019-05-23T17:36:20.279Z,3.50
2019-05-23T17:38:49.233Z,5.77
2019-05-23T17:41:17.843Z,6.60
2019-05-23T17:43:46.452Z,5.60
2019-05-23T17:46:15.230Z,6.40
2019-05-23T17:48:43.367Z,5.13
2019-05-23T17:51:11.874Z,3.93
2019-05-23T17:53:40.804Z,5.30
2019-05-23T17:56:09.811Z,3.63
2019-05-23T17:58:38.291Z,4.50
2019-05-23T18:01:07.400Z,4.23
2019-05-23T18:03:36.183Z,4.30
2019-05-23T18:06:05.442Z,2.60
2019-05-23T18:08:35.142Z,3.53
2019-05-23T18:11:04.239Z,5.53
2019-05-23T18:13:32.738Z,3.27
2019-05-23T18:16:02.052Z,4.63
2019-05-23T18:18:30.688Z,2.67
2019-05-23T18:20:59.115Z,3.47
2019-05-23T18:23:27.708Z,3.43
2019-05-23T18:25:56.301Z,4.80
2019-05-23T18:28:24.976Z,10.93
2019-05-23T18:30:55.145Z,9.53
2019-05-23T18:33:25.308Z,8.03
2019-05-23T18:35:54.549Z,5.60
2019-05-23T18:38:25.158Z,4.23
2019-05-23T18:41:04.180Z,4.63
2019-05-23T18:43:24.689Z,2.97
2019-05-23T18:45:54.466Z,4.87
2019-05-23T18:48:23.684Z,3.87
2019-05-23T18:50:52.567Z,3.53
2019-05-23T18:53:21.560Z,2.80
2019-05-23T18:55:50.266Z,3.97
2019-05-23T18:58:20.117Z,4.23
2019-05-23T19:00:56.905Z,3.83
2019-05-23T19:03:25.288Z,5.53
2019-05-23T19:05:53.626Z,5.63
2019-05-23T19:08:22.586Z,5.03
2019-05-23T19:10:50.888Z,4.53
2019-05-23T19:13:19.403Z,4.47
2019-05-23T19:15:47.908Z,4.13
2019-05-23T19:18:16.725Z,3.57
2019-05-23T19:20:45.441Z,4.13
2019-05-23T19:23:14.123Z,2.83
2019-05-23T19:25:44.652Z,3.80
2019-05-23T19:28:12.905Z,2.87
2019-05-23T19:30:42.380Z,5.43
2019-05-23T19:33:11.254Z,4.70
2019-05-23T19:35:39.758Z,6.07
2019-05-23T19:38:09.353Z,5.17
2019-05-23T19:40:38.029Z,5.83
2019-05-23T19:43:06.732Z,6.40
2019-05-23T19:45:36.067Z,7.00
2019-05-23T19:48:05.043Z,5.07
2019-05-23T19:50:33.904Z,11.23
2019-05-23T19:53:02.477Z,9.33
2019-05-23T19:55:31.763Z,12.87
2019-05-23T19:58:00.649Z,11.70
2019-05-23T20:00:31.407Z,11.20
2019-05-23T20:03:03.110Z,7.20
2019-05-23T20:05:33.786Z,7.43
2019-05-23T20:08:02.670Z,6.37
2019-05-23T20:10:31.271Z,6.43
2019-05-23T20:12:59.787Z,7.07
2019-05-23T20:15:28.986Z,6.03
2019-05-23T20:17:57.395Z,5.83
2019-05-23T20:20:26.284Z,5.83
2019-05-23T20:22:55.292Z,6.13
2019-05-23T20:25:24.778Z,5.73
2019-05-23T20:27:53.508Z,4.13
2019-05-23T20:30:44.287Z,6.13
2019-05-23T20:33:12.909Z,6.00
2019-05-23T20:35:41.491Z,4.33
2019-05-23T20:38:09.780Z,3.70
2019-05-23T20:40:39.893Z,6.77
2019-05-23T20:43:08.485Z,5.27
2019-05-23T20:45:37.606Z,4.93
2019-05-23T20:48:06.807Z,5.43
2019-05-23T20:50:35.092Z,6.27
2019-05-23T20:53:03.977Z,6.07
2019-05-23T20:55:32.580Z,8.00
2019-05-23T20:58:01.327Z,7.10
2019-05-23T21:00:33.995Z,7.03
2019-05-23T21:03:03.509Z,6.23
2019-05-23T21:05:32.655Z,6.03
2019-05-23T21:08:01.135Z,6.93
2019-05-23T21:10:30.940Z,7.83
2019-05-23T21:12:59.207Z,6.10
2019-05-23T21:15:27.774Z,6.80
2019-05-23T21:17:56.276Z,7.43
2019-05-23T21:20:24.448Z,5.77
2019-05-23T21:22:52.559Z,4.83
2019-05-23T21:25:21.266Z,6.50
2019-05-23T21:27:49.779Z,13.63
2019-05-23T21:30:18.247Z,6.03
2019-05-23T21:32:46.368Z,5.60
2019-05-23T21:35:14.604Z,6.40
2019-05-23T21:37:42.808Z,6.30
2019-05-23T21:40:14.396Z,6.63
2019-05-23T21:42:47.897Z,5.43
2019-05-23T21:45:13.175Z,8.73
2019-05-23T21:47:41.781Z,5.10
2019-05-23T21:50:10.553Z,8.17
2019-05-23T21:52:39.318Z,5.13
2019-05-23T21:55:07.467Z,8.70
2019-05-23T21:57:36.129Z,5.10
2019-05-23T22:00:06.509Z,6.20
2019-05-23T22:02:36.520Z,5.20
2019-05-23T22:05:10.750Z,6.50
2019-05-23T22:07:39.796Z,7.70
2019-05-23T22:10:08.660Z,4.63
2019-05-23T22:12:37.692Z,5.00
2019-05-23T22:15:07.197Z,4.20
2019-05-23T22:17:36.236Z,4.93
2019-05-23T22:20:05.167Z,4.60
2019-05-23T22:22:33.723Z,5.20
2019-05-23T22:25:02.204Z,5.97
2019-05-23T22:27:30.428Z,4.47
2019-05-23T22:29:58.545Z,6.07
2019-05-23T22:32:28.837Z,5.40
2019-05-23T22:34:58.596Z,4.50
2019-05-23T22:37:27.279Z,5.47
2019-05-23T22:39:55.798Z,5.60
2019-05-23T22:42:26.128Z,3.80
2019-05-23T22:44:54.637Z,5.30
2019-05-23T22:47:24.310Z,5.80
2019-05-23T22:49:52.932Z,5.07
2019-05-23T22:52:21.476Z,5.13
2019-05-23T22:54:49.603Z,5.87
2019-05-23T22:57:18.253Z,4.30
2019-05-23T22:59:46.727Z,5.00
2019-05-23T23:02:16.435Z,4.60
2019-05-23T23:04:45.246Z,6.53
2019-05-23T23:07:14.306Z,5.30
2019-05-23T23:09:42.921Z,5.93
2019-05-23T23:12:11.279Z,6.20
2019-05-23T23:14:39.936Z,5.30
2019-05-23T23:17:08.296Z,6.07
2019-05-23T23:19:36.840Z,5.00
2019-05-23T23:22:07.411Z,5.83
2019-05-23T23:24:40.589Z,5.57
2019-05-23T23:27:09.058Z,6.57
2019-05-23T23:29:37.509Z,4.33
2019-05-23T23:32:06.093Z,4.57
2019-05-23T23:34:34.602Z,5.40
2019-05-23T23:37:03.045Z,5.90
2019-05-23T23:39:31.306Z,4.50
2019-05-23T23:41:59.732Z,4.73
2019-05-23T23:44:36.438Z,7.97
2019-05-23T23:47:23.951Z,5.90
2019-05-23T23:50:10.679Z,7.37
2019-05-23T23:52:57.095Z,7.73
2019-05-23T23:55:43.531Z,6.00
2019-05-23T23:58:11.327Z,4.73
